createdAt,value
2016-04-04T00:00:23.640Z,0
2016-04-04T00:01:23.627Z,0
2016-04-04T00:02:23.629Z,0
2016-04-04T00:03:23.665Z,0
2016-04-04T00:04:23.651Z,0
2016-04-04T00:05:23.623Z,0
2016-04-04T00:06:23.687Z,0
2016-04-04T00:07:23.690Z,0
2016-04-04T00:08:23.678Z,0
2016-04-04T00:09:23.680Z,0
2016-04-04T00:10:23.683Z,0
2016-04-04T00:11:23.717Z,0
2016-04-04T00:12:23.720Z,0
2016-04-04T00:13:23.706Z,0
2016-04-04T00:14:23.694Z,0
2016-04-04T00:15:23.744Z,0
2016-04-04T00:16:23.731Z,0
2016-04-04T00:17:23.780Z,0
2016-04-04T00:18:23.751Z,0
2016-04-04T00:19:23.769Z,0
2016-04-04T00:20:23.757Z,0
2016-04-04T00:21:23.760Z,0
2016-04-04T00:22:23.747Z,0
2016-04-04T00:23:23.765Z,0
2016-04-04T00:24:23.783Z,0
2016-04-04T00:25:23.754Z,0
2016-04-04T00:26:23.663Z,0
2016-04-04T00:27:23.760Z,0
2016-04-04T00:28:23.779Z,0
2016-04-04T00:29:23.765Z,0
2016-04-04T00:30:23.768Z,0
2016-04-04T00:31:23.770Z,0
2016-04-04T00:32:23.820Z,0
2016-04-04T00:33:23.838Z,0
2016-04-04T00:34:23.810Z,0
2016-04-04T00:35:23.843Z,0
2016-04-04T00:36:23.784Z,0
2016-04-04T00:37:23.833Z,0
2016-04-04T00:38:23.836Z,0
2016-04-04T00:39:23.840Z,0
2016-04-04T00:40:23.856Z,0
2016-04-04T00:41:23.829Z,0
2016-04-04T00:42:23.831Z,0
2016-04-04T00:43:23.849Z,0
2016-04-04T00:44:23.883Z,0
2016-04-04T00:45:23.856Z,0
2016-04-04T00:46:23.842Z,0
2016-04-04T00:47:23.876Z,0
2016-04-04T00:48:23.878Z,0
2016-04-04T00:49:23.913Z,0
2016-04-04T00:50:23.883Z,0
2016-04-04T00:51:23.871Z,0
2016-04-04T00:52:23.874Z,0
2016-04-04T00:53:23.877Z,0
2016-04-04T00:54:23.926Z,0
2016-04-04T00:55:23.929Z,0
2016-04-04T00:56:23.932Z,0
2016-04-04T00:57:23.888Z,0
2016-04-04T00:58:23.890Z,0
2016-04-04T00:59:23.877Z,0
2016-04-04T01:00:23.739Z,0
2016-04-04T01:01:23.929Z,0
2016-04-04T01:02:23.963Z,0
2016-04-04T01:03:23.951Z,0
2016-04-04T01:04:23.922Z,0
2016-04-04T01:05:23.940Z,0
2016-04-04T01:06:23.912Z,0
2016-04-04T01:07:23.915Z,0
2016-04-04T01:08:23.949Z,0
2016-04-04T01:09:23.154Z,0
2016-04-04T01:10:23.923Z,0
2016-04-04T01:11:23.957Z,0
2016-04-04T01:12:23.959Z,0
2016-04-04T01:13:23.978Z,0
2016-04-04T01:14:23.964Z,0
2016-04-04T01:15:23.951Z,0
2016-04-04T01:16:23.986Z,0
2016-04-04T01:17:23.972Z,0
2016-04-04T01:18:23.991Z,0
2016-04-04T01:19:23.994Z,0
2016-04-04T01:20:23.964Z,0
2016-04-04T01:21:23.983Z,0
2016-04-04T01:22:24.033Z,0
2016-04-04T01:23:23.989Z,0
2016-04-04T01:24:24.023Z,0
2016-04-04T01:25:24.010Z,0
2016-04-04T01:26:24.028Z,0
2016-04-04T01:27:23.999Z,0
2016-04-04T01:28:24.002Z,0
2016-04-04T01:29:24.004Z,0
2016-04-04T01:30:24.023Z,0
2016-04-04T01:31:24.041Z,0
2016-04-04T01:32:24.029Z,0
2016-04-04T01:33:24.047Z,0
2016-04-04T01:34:24.049Z,0
2016-04-04T01:35:24.052Z,0
2016-04-04T01:36:24.055Z,0
2016-04-04T01:37:24.074Z,0
2016-04-04T01:38:24.076Z,0
2016-04-04T01:39:24.063Z,0
2016-04-04T01:40:24.082Z,0
2016-04-04T01:41:24.084Z,0
2016-04-04T01:42:24.056Z,0
2016-04-04T01:43:24.089Z,0
2016-04-04T01:44:24.061Z,0
2016-04-04T01:45:24.079Z,0
2016-04-04T01:46:24.081Z,0
2016-04-04T01:47:24.100Z,0
2016-04-04T01:48:23.914Z,0
2016-04-04T01:49:24.105Z,0
2016-04-04T01:50:24.124Z,0
2016-04-04T01:51:24.126Z,0
2016-04-04T01:52:24.113Z,0
2016-04-04T01:53:24.116Z,0
2016-04-04T01:54:24.118Z,0
2016-04-04T01:55:24.137Z,0
2016-04-04T01:56:24.155Z,0
2016-04-04T01:57:24.127Z,0
2016-04-04T01:58:24.129Z,0
2016-04-04T01:59:24.148Z,0
2016-04-04T02:00:24.155Z,0
2016-04-04T02:01:24.143Z,0
2016-04-04T02:02:24.161Z,0
2016-04-04T02:03:24.163Z,0
2016-04-04T02:04:24.166Z,0
2016-04-04T02:05:24.153Z,0
2016-04-04T02:06:24.187Z,0
2016-04-04T02:07:24.174Z,0
2016-04-04T02:08:24.176Z,0
2016-04-04T02:09:24.195Z,0
2016-04-04T02:10:24.198Z,0
2016-04-04T02:11:24.185Z,0
2016-04-04T02:12:24.187Z,0
2016-04-04T02:13:24.190Z,0
2016-04-04T02:14:24.193Z,0
2016-04-04T02:15:24.212Z,0
2016-04-04T02:16:24.214Z,0
2016-04-04T02:17:24.248Z,0
2016-04-04T02:18:24.203Z,0
2016-04-04T02:19:24.253Z,0
2016-04-04T02:20:24.256Z,0
2016-04-04T02:21:24.244Z,0
2016-04-04T02:22:24.231Z,0
2016-04-04T02:23:24.249Z,0
2016-04-04T02:24:24.267Z,0
2016-04-04T02:25:24.285Z,0
2016-04-04T02:26:24.241Z,0
2016-04-04T02:27:24.260Z,0
2016-04-04T02:28:24.263Z,0
2016-04-04T02:29:24.265Z,0
2016-04-04T02:30:24.268Z,0
2016-04-04T02:31:24.271Z,0
2016-04-04T02:32:24.288Z,0
2016-04-04T02:33:24.276Z,0
2016-04-04T02:34:24.263Z,0
2016-04-04T02:35:24.281Z,0
2016-04-04T02:36:24.299Z,0
2016-04-04T02:37:24.302Z,0
2016-04-04T02:38:24.304Z,0
2016-04-04T02:39:24.307Z,0
2016-04-04T02:40:24.326Z,0
2016-04-04T02:41:24.312Z,0
2016-04-04T02:42:24.315Z,0
2016-04-04T02:43:24.334Z,0
2016-04-04T02:44:24.337Z,0
2016-04-04T02:45:24.339Z,0
2016-04-04T02:46:24.311Z,0
2016-04-04T02:47:24.361Z,0
2016-04-04T02:48:24.363Z,0
2016-04-04T02:49:24.350Z,0
2016-04-04T02:50:24.368Z,0
2016-04-04T02:51:24.339Z,0
2016-04-04T02:52:24.358Z,0
2016-04-04T02:53:24.360Z,0
2016-04-04T02:54:24.363Z,0
2016-04-04T02:55:24.350Z,0
2016-04-04T02:56:24.352Z,0
2016-04-04T02:57:24.372Z,0
2016-04-04T02:58:24.374Z,0
2016-04-04T02:59:24.361Z,0
2016-04-04T03:00:24.379Z,0
2016-04-04T03:01:24.414Z,0
2016-04-04T03:02:24.385Z,0
2016-04-04T03:03:24.403Z,0
2016-04-04T03:04:24.391Z,0
2016-04-04T03:05:24.393Z,0
2016-04-04T03:06:24.412Z,0
2016-04-04T03:07:24.414Z,0
2016-04-04T03:08:24.254Z,0
2016-04-04T03:09:24.428Z,0
2016-04-04T03:10:24.446Z,0
2016-04-04T03:11:24.449Z,0
2016-04-04T03:12:24.421Z,0
2016-04-04T03:13:24.470Z,0
2016-04-04T03:14:24.473Z,0
2016-04-04T03:15:24.476Z,0
2016-04-04T03:16:24.446Z,0
2016-04-04T03:17:24.465Z,0
2016-04-04T03:18:24.452Z,0
2016-04-04T03:19:24.471Z,0
2016-04-04T03:20:24.473Z,0
2016-04-04T03:21:24.492Z,0
2016-04-04T03:22:24.479Z,0
2016-04-04T03:23:24.497Z,0
2016-04-04T03:24:24.468Z,0
2016-04-04T03:25:24.487Z,0
2016-04-04T03:26:24.489Z,0
2016-04-04T03:27:24.492Z,0
2016-04-04T03:28:24.495Z,0
2016-04-04T03:29:24.513Z,0
2016-04-04T03:30:24.500Z,0
2016-04-04T03:31:24.519Z,0
2016-04-04T03:32:24.505Z,0
2016-04-04T03:33:24.571Z,0
2016-04-04T03:34:24.511Z,0
2016-04-04T03:35:24.545Z,0
2016-04-04T03:36:24.563Z,0
2016-04-04T03:37:24.519Z,0
2016-04-04T03:38:24.538Z,0
2016-04-04T03:39:24.572Z,0
2016-04-04T03:40:24.543Z,0
2016-04-04T03:41:24.560Z,0
2016-04-04T03:42:24.549Z,0
2016-04-04T03:43:24.551Z,0
2016-04-04T03:44:24.568Z,0
2016-04-04T03:45:24.557Z,0
2016-04-04T03:46:24.575Z,0
2016-04-04T03:47:24.593Z,0
2016-04-04T03:48:24.642Z,0
2016-04-04T03:49:24.583Z,0
2016-04-04T03:50:24.679Z,0
2016-04-04T03:51:24.634Z,0
2016-04-04T03:52:24.590Z,0
2016-04-04T03:53:24.593Z,0
2016-04-04T03:54:24.612Z,0
2016-04-04T03:55:24.614Z,0
2016-04-04T03:56:24.633Z,0
2016-04-04T03:57:24.636Z,0
2016-04-04T03:58:24.639Z,0
2016-04-04T03:59:24.641Z,0
2016-04-04T04:00:24.628Z,0
2016-04-04T04:01:24.678Z,0
2016-04-04T04:02:24.633Z,0
2016-04-04T04:03:24.652Z,0
2016-04-04T04:04:24.655Z,0
2016-04-04T04:05:24.703Z,0
2016-04-04T04:06:24.661Z,0
2016-04-04T04:07:24.679Z,0
2016-04-04T04:08:24.666Z,0
2016-04-04T04:09:24.653Z,0
2016-04-04T04:10:24.672Z,0
2016-04-04T04:11:24.689Z,0
2016-04-04T04:12:24.661Z,0
2016-04-04T04:13:24.711Z,0
2016-04-04T04:14:24.698Z,0
2016-04-04T04:15:24.700Z,0
2016-04-04T04:16:24.688Z,0
2016-04-04T04:17:24.691Z,0
2016-04-04T04:18:24.708Z,0
2016-04-04T04:19:24.742Z,0
2016-04-04T04:20:24.698Z,0
2016-04-04T04:21:24.733Z,0
2016-04-04T04:22:24.704Z,0
2016-04-04T04:23:24.706Z,0
2016-04-04T04:24:24.710Z,0
2016-04-04T04:25:24.696Z,0
2016-04-04T04:26:24.730Z,0
2016-04-04T04:27:24.763Z,0
2016-04-04T04:28:24.752Z,0
2016-04-04T04:29:24.801Z,0
2016-04-04T04:30:24.756Z,0
2016-04-04T04:31:24.728Z,0
2016-04-04T04:32:24.730Z,0
2016-04-04T04:33:24.765Z,0
2016-04-04T04:34:24.767Z,0
2016-04-04T04:35:24.832Z,0
2016-04-04T04:36:24.788Z,0
2016-04-04T04:37:24.790Z,0
2016-04-04T04:38:24.778Z,0
2016-04-04T04:39:24.811Z,0
2016-04-04T04:40:24.846Z,0
2016-04-04T04:41:24.817Z,0
2016-04-04T04:42:24.789Z,0
2016-04-04T04:43:24.760Z,0
2016-04-04T04:44:24.778Z,0
2016-04-04T04:45:24.828Z,0
2016-04-04T04:46:24.814Z,0
2016-04-04T04:47:24.833Z,0
2016-04-04T04:48:24.789Z,0
2016-04-04T04:49:24.808Z,0
2016-04-04T04:50:24.810Z,0
2016-04-04T04:51:24.813Z,0
2016-04-04T04:52:24.863Z,0
2016-04-04T04:53:24.818Z,0
2016-04-04T04:54:24.852Z,0
2016-04-04T04:55:24.870Z,0
2016-04-04T04:56:24.841Z,0
2016-04-04T04:57:24.860Z,0
2016-04-04T04:58:24.863Z,0
2016-04-04T04:59:24.865Z,0
2016-04-04T05:00:24.852Z,0
2016-04-04T05:01:24.887Z,0
2016-04-04T05:02:24.857Z,0
2016-04-04T05:03:24.877Z,5
2016-04-04T05:04:24.879Z,5
2016-04-04T05:05:24.898Z,5
2016-04-04T05:06:24.884Z,5
2016-04-04T05:07:24.887Z,5
2016-04-04T05:08:24.906Z,5
2016-04-04T05:09:24.892Z,5
2016-04-04T05:10:24.879Z,5
2016-04-04T05:11:24.928Z,5
2016-04-04T05:12:24.948Z,10
2016-04-04T05:13:24.903Z,10
2016-04-04T05:14:24.936Z,10
2016-04-04T05:15:24.784Z,10
2016-04-04T05:16:24.943Z,10
2016-04-04T05:17:24.930Z,10
2016-04-04T05:18:24.963Z,10
2016-04-04T05:19:24.967Z,15
2016-04-04T05:20:24.922Z,15
2016-04-04T05:21:24.955Z,15
2016-04-04T05:22:24.958Z,15
2016-04-04T05:23:24.977Z,15
2016-04-04T05:24:25.027Z,15
2016-04-04T05:25:37.810Z,15
2016-04-04T05:26:37.568Z,20
2016-04-04T05:27:25.421Z,20
2016-04-04T05:28:25.209Z,20
2016-04-04T05:29:24.993Z,20
2016-04-04T05:30:25.058Z,20
2016-04-04T05:31:24.983Z,25
2016-04-04T05:32:25.001Z,25
2016-04-04T05:33:24.723Z,25
2016-04-04T05:34:25.053Z,30
2016-04-04T05:35:25.025Z,30
2016-04-04T05:36:25.012Z,30
2016-04-04T05:37:25.031Z,35
2016-04-04T05:38:25.034Z,35
2016-04-04T05:39:25.004Z,40
2016-04-04T05:40:25.039Z,40
2016-04-04T05:41:25.041Z,40
2016-04-04T05:42:25.044Z,40
2016-04-04T05:43:25.047Z,40
2016-04-04T05:44:25.064Z,40
2016-04-04T05:45:25.084Z,40
2016-04-04T05:46:24.898Z,40
2016-04-04T05:47:25.073Z,40
2016-04-04T05:48:25.092Z,40
2016-04-04T05:49:25.063Z,40
2016-04-04T05:50:25.081Z,45
2016-04-04T05:51:25.083Z,45
2016-04-04T05:52:25.071Z,45
2016-04-04T05:53:25.073Z,50
2016-04-04T05:54:25.077Z,50
2016-04-04T05:55:25.141Z,50
2016-04-04T05:56:25.081Z,50
2016-04-04T05:57:25.085Z,50
2016-04-04T05:58:25.119Z,55
2016-04-04T05:59:25.121Z,55
2016-04-04T06:00:25.138Z,55
2016-04-04T06:01:25.079Z,55
2016-04-04T06:02:25.113Z,55
2016-04-04T06:03:25.100Z,60
2016-04-04T06:04:25.149Z,60
2016-04-04T06:05:25.121Z,60
2016-04-04T06:06:25.124Z,60
2016-04-04T06:07:25.142Z,60
2016-04-04T06:08:25.145Z,60
2016-04-04T06:09:25.163Z,65
2016-04-04T06:10:25.150Z,65
2016-04-04T06:11:25.122Z,70
2016-04-04T06:12:25.156Z,75
2016-04-04T06:13:25.173Z,75
2016-04-04T06:14:25.208Z,80
2016-04-04T06:15:25.242Z,90
2016-04-04T06:16:25.181Z,95
2016-04-04T06:17:25.153Z,95
2016-04-04T06:18:25.187Z,95
2016-04-04T06:19:25.190Z,100
2016-04-04T06:20:25.224Z,105
2016-04-04T06:21:25.180Z,110
2016-04-04T06:22:25.183Z,115
2016-04-04T06:23:25.232Z,120
2016-04-04T06:24:25.203Z,125
2016-04-04T06:25:25.190Z,125
2016-04-04T06:26:25.240Z,125
2016-04-04T06:27:25.211Z,125
2016-04-04T06:28:25.245Z,135
2016-04-04T06:29:25.233Z,135
2016-04-04T06:30:25.219Z,140
2016-04-04T06:31:25.269Z,145
2016-04-04T06:32:25.256Z,130
2016-04-04T06:33:25.244Z,130
2016-04-04T06:34:25.262Z,130
2016-04-04T06:35:25.279Z,130
2016-04-04T06:36:25.268Z,125
2016-04-04T06:37:25.285Z,130
2016-04-04T06:38:25.273Z,135
2016-04-04T06:39:25.290Z,135
2016-04-04T06:40:25.278Z,140
2016-04-04T06:41:25.328Z,165
2016-04-04T06:42:25.314Z,165
2016-04-04T06:43:25.301Z,170
2016-04-04T06:44:25.304Z,180
2016-04-04T06:45:25.323Z,160
2016-04-04T06:46:25.356Z,145
2016-04-04T06:47:25.312Z,140
2016-04-04T06:48:25.362Z,140
2016-04-04T06:49:25.349Z,135
2016-04-04T06:50:25.367Z,140
2016-04-04T06:51:25.354Z,140
2016-04-04T06:52:25.357Z,140
2016-04-04T06:53:25.360Z,145
2016-04-04T06:54:25.394Z,140
2016-04-04T06:55:25.396Z,135
2016-04-04T06:56:25.399Z,130
2016-04-04T06:57:25.417Z,125
2016-04-04T06:58:25.388Z,120
2016-04-04T06:59:25.391Z,125
2016-04-04T07:00:25.446Z,125
2016-04-04T07:01:25.465Z,130
2016-04-04T07:02:25.498Z,155
2016-04-04T07:03:25.516Z,155
2016-04-04T07:04:25.300Z,130
2016-04-04T07:05:25.444Z,130
2016-04-04T07:06:25.446Z,140
2016-04-04T07:07:25.465Z,145
2016-04-04T07:08:25.467Z,165
2016-04-04T07:09:25.486Z,165
2016-04-04T07:10:25.488Z,195
2016-04-04T07:11:25.459Z,210
2016-04-04T07:12:25.494Z,205
2016-04-04T07:13:25.496Z,200
2016-04-04T07:14:25.546Z,190
2016-04-04T07:15:25.548Z,210
2016-04-04T07:16:25.379Z,210
2016-04-04T07:17:25.538Z,210
2016-04-04T07:18:25.525Z,205
2016-04-04T07:19:25.513Z,200
2016-04-04T07:20:25.593Z,215
2016-04-04T07:21:25.597Z,215
2016-04-04T07:22:25.599Z,220
2016-04-04T07:23:25.602Z,225
2016-04-04T07:24:25.588Z,240
2016-04-04T07:25:25.622Z,245
2016-04-04T07:26:25.594Z,245
2016-04-04T07:27:25.597Z,255
2016-04-04T07:28:25.599Z,250
2016-04-04T07:29:25.617Z,250
2016-04-04T07:30:25.636Z,250
2016-04-04T07:31:25.639Z,250
2016-04-04T07:32:25.673Z,250
2016-04-04T07:33:25.643Z,255
2016-04-04T07:34:25.647Z,250
2016-04-04T07:35:25.711Z,255
2016-04-04T07:36:25.668Z,250
2016-04-04T07:37:25.701Z,255
2016-04-04T07:38:25.704Z,250
2016-04-04T07:39:25.676Z,260
2016-04-04T07:40:25.710Z,255
2016-04-04T07:41:25.759Z,255
2016-04-04T07:42:25.777Z,255
2016-04-04T07:43:25.749Z,260
2016-04-04T07:44:25.784Z,250
2016-04-04T07:45:25.770Z,240
2016-04-04T07:46:25.772Z,245
2016-04-04T07:47:25.791Z,235
2016-04-04T07:48:25.794Z,235
2016-04-04T07:49:25.812Z,235
2016-04-04T07:50:25.846Z,230
2016-04-04T07:51:25.817Z,220
2016-04-04T07:52:25.897Z,215
2016-04-04T07:53:25.948Z,215
2016-04-04T07:54:25.841Z,215
2016-04-04T07:55:25.890Z,210
2016-04-04T07:56:25.894Z,215
2016-04-04T07:57:25.724Z,215
2016-04-04T07:58:25.899Z,215
2016-04-04T07:59:25.916Z,220
2016-04-04T08:00:25.935Z,220
2016-04-04T08:01:25.937Z,225
2016-04-04T08:02:25.972Z,230
2016-04-04T08:03:25.943Z,230
2016-04-04T08:04:25.977Z,230
2016-04-04T08:05:25.949Z,230
2016-04-04T08:06:25.968Z,235
2016-04-04T08:07:25.954Z,240
2016-04-04T08:08:25.972Z,255
2016-04-04T08:09:25.975Z,265
2016-04-04T08:10:26.009Z,280
2016-04-04T08:11:26.028Z,295
2016-04-04T08:12:26.014Z,320
2016-04-04T08:13:26.017Z,335
2016-04-04T08:14:26.003Z,335
2016-04-04T08:15:26.069Z,325
2016-04-04T08:16:26.072Z,300
2016-04-04T08:17:26.090Z,260
2016-04-04T08:18:26.062Z,240
2016-04-04T08:19:26.064Z,225
2016-04-04T08:20:26.083Z,220
2016-04-04T08:21:26.101Z,200
2016-04-04T08:22:26.088Z,180
2016-04-04T08:23:26.091Z,165
2016-04-04T08:24:26.141Z,145
2016-04-04T08:25:26.128Z,135
2016-04-04T08:26:26.161Z,120
2016-04-04T08:27:26.133Z,115
2016-04-04T08:28:26.151Z,110
2016-04-04T08:29:26.155Z,110
2016-04-04T08:30:26.157Z,110
2016-04-04T08:31:26.175Z,115
2016-04-04T08:32:26.193Z,120
2016-04-04T08:33:26.233Z,130
2016-04-04T08:34:26.161Z,135
2016-04-04T08:35:26.168Z,140
2016-04-04T08:36:26.159Z,145
2016-04-04T08:37:26.165Z,155
2016-04-04T08:38:26.163Z,170
2016-04-04T08:39:26.145Z,185
2016-04-04T08:40:26.190Z,195
2016-04-04T08:41:26.189Z,205
2016-04-04T08:42:26.187Z,210
2016-04-04T08:43:26.172Z,220
2016-04-04T08:44:26.204Z,230
2016-04-04T08:45:26.191Z,230
2016-04-04T08:46:26.192Z,240
2016-04-04T08:47:26.239Z,235
2016-04-04T08:48:26.257Z,240
2016-04-04T08:49:26.196Z,245
2016-04-04T08:50:26.229Z,265
2016-04-04T08:51:26.215Z,295
2016-04-04T08:52:26.217Z,315
2016-04-04T08:53:26.235Z,330
2016-04-04T08:54:26.254Z,340
2016-04-04T08:55:26.287Z,340
2016-04-04T08:56:26.258Z,330
2016-04-04T08:57:26.228Z,345
2016-04-04T08:58:26.231Z,325
2016-04-04T08:59:26.234Z,335
2016-04-04T09:00:26.253Z,340
2016-04-04T09:01:26.318Z,330
2016-04-04T09:02:26.304Z,310
2016-04-04T09:03:26.308Z,310
2016-04-04T09:04:26.310Z,310
2016-04-04T09:05:26.297Z,300
2016-04-04T09:06:27.252Z,295
2016-04-04T09:07:26.302Z,290
2016-04-04T09:08:26.305Z,280
2016-04-04T09:09:26.308Z,285
2016-04-04T09:10:26.342Z,285
2016-04-04T09:11:26.329Z,295
2016-04-04T09:12:26.378Z,290
2016-04-04T09:13:26.350Z,300
2016-04-04T09:14:26.368Z,305
2016-04-04T09:15:26.387Z,315
2016-04-04T09:16:26.420Z,320
2016-04-04T09:17:26.361Z,325
2016-04-04T09:18:26.364Z,330
2016-04-04T09:19:26.412Z,325
2016-04-04T09:20:26.384Z,325
2016-04-04T09:21:26.387Z,315
2016-04-04T09:22:26.452Z,305
2016-04-04T09:23:26.408Z,295
2016-04-04T09:24:26.411Z,280
2016-04-04T09:25:26.445Z,285
2016-04-04T09:26:26.478Z,295
2016-04-04T09:27:26.294Z,310
2016-04-04T09:28:26.484Z,335
2016-04-04T09:29:26.143Z,360
2016-04-04T09:30:26.474Z,345
2016-04-04T09:31:26.508Z,335
2016-04-04T09:32:26.479Z,330
2016-04-04T09:33:26.341Z,350
2016-04-04T09:34:26.547Z,310
2016-04-04T09:35:26.518Z,300
2016-04-04T09:36:26.521Z,280
2016-04-04T09:37:26.540Z,250
2016-04-04T09:38:26.511Z,215
2016-04-04T09:39:26.513Z,190
2016-04-04T09:40:26.532Z,155
2016-04-04T09:41:26.518Z,120
2016-04-04T09:42:26.521Z,90
2016-04-04T09:43:26.602Z,75
2016-04-04T09:44:26.574Z,70
2016-04-04T09:45:26.593Z,70
2016-04-04T09:46:26.595Z,75
2016-04-04T09:47:26.612Z,75
2016-04-04T09:48:26.616Z,75
2016-04-04T09:49:26.604Z,75
2016-04-04T09:50:26.590Z,80
2016-04-04T09:51:26.608Z,80
2016-04-04T09:52:26.595Z,80
2016-04-04T09:53:26.597Z,80
2016-04-04T09:54:26.631Z,85
2016-04-04T09:55:26.635Z,80
2016-04-04T09:56:26.653Z,75
2016-04-04T09:57:26.656Z,70
2016-04-04T09:58:26.517Z,70
2016-04-04T09:59:26.677Z,70
2016-04-04T10:00:26.633Z,70
2016-04-04T10:01:26.651Z,65
2016-04-04T10:02:26.654Z,60
2016-04-04T10:03:26.672Z,60
2016-04-04T10:04:26.674Z,65
2016-04-04T10:05:26.693Z,70
2016-04-04T10:06:26.696Z,75
2016-04-04T10:07:26.683Z,80
2016-04-04T10:08:26.701Z,85
2016-04-04T10:09:26.709Z,90
2016-04-04T10:10:26.695Z,95
2016-04-04T10:11:26.699Z,105
2016-04-04T10:12:26.685Z,110
2016-04-04T10:13:26.720Z,110
2016-04-04T10:14:26.722Z,110
2016-04-04T10:15:26.709Z,120
2016-04-04T10:16:26.712Z,125
2016-04-04T10:17:26.684Z,135
2016-04-04T10:18:26.701Z,150
2016-04-04T10:19:26.736Z,165
2016-04-04T10:20:26.784Z,175
2016-04-04T10:21:26.741Z,190
2016-04-04T10:22:26.712Z,205
2016-04-04T10:23:26.762Z,220
2016-04-04T10:24:26.749Z,245
2016-04-04T10:25:26.752Z,265
2016-04-04T10:26:26.739Z,290
2016-04-04T10:27:26.758Z,310
2016-04-04T10:28:26.744Z,315
2016-04-04T10:29:26.763Z,320
2016-04-04T10:30:26.765Z,335
2016-04-04T10:31:26.799Z,345
2016-04-04T10:32:26.754Z,375
2016-04-04T10:33:26.789Z,395
2016-04-04T10:34:26.792Z,385
2016-04-04T10:35:26.779Z,380
2016-04-04T10:36:26.640Z,375
2016-04-04T10:37:26.815Z,365
2016-04-04T10:38:26.817Z,345
2016-04-04T10:39:26.851Z,325
2016-04-04T10:40:26.746Z,320
2016-04-04T10:41:26.841Z,315
2016-04-04T10:42:26.876Z,315
2016-04-04T10:43:26.862Z,325
2016-04-04T10:44:26.818Z,335
2016-04-04T10:45:26.837Z,340
2016-04-04T10:46:26.871Z,345
2016-04-04T10:47:26.857Z,340
2016-04-04T10:48:26.860Z,335
2016-04-04T10:49:26.862Z,330
2016-04-04T10:50:26.881Z,330
2016-04-04T10:51:26.884Z,320
2016-04-04T10:52:26.871Z,315
2016-04-04T10:53:26.889Z,310
2016-04-04T10:54:26.892Z,290
2016-04-04T10:55:26.878Z,280
2016-04-04T10:56:26.897Z,280
2016-04-04T10:57:26.900Z,280
2016-04-04T10:58:26.950Z,280
2016-04-04T10:59:26.952Z,280
2016-04-04T11:00:26.939Z,280
2016-04-04T11:01:26.974Z,280
2016-04-04T11:02:29.961Z,275
2016-04-04T11:03:26.979Z,265
2016-04-04T11:04:26.966Z,250
2016-04-04T11:05:26.952Z,225
2016-04-04T11:06:26.956Z,215
2016-04-04T11:07:26.849Z,205
2016-04-04T11:08:26.846Z,205
2016-04-04T11:09:26.989Z,210
2016-04-04T11:10:27.007Z,215
2016-04-04T11:11:26.978Z,220
2016-04-04T11:12:27.012Z,225
2016-04-04T11:13:27.000Z,245
2016-04-04T11:14:27.050Z,250
2016-04-04T11:15:27.020Z,265
2016-04-04T11:16:27.039Z,275
2016-04-04T11:17:27.042Z,285
2016-04-04T11:18:27.045Z,300
2016-04-04T11:19:27.016Z,315
2016-04-04T11:20:27.050Z,365
2016-04-04T11:21:27.100Z,385
2016-04-04T11:22:27.056Z,360
2016-04-04T11:23:27.058Z,345
2016-04-04T11:24:27.061Z,335
2016-04-04T11:25:27.080Z,340
2016-04-04T11:26:27.066Z,330
2016-04-04T11:27:27.069Z,290
2016-04-04T11:28:27.088Z,315
2016-04-04T11:29:27.152Z,320
2016-04-04T11:30:27.093Z,300
2016-04-04T11:31:27.095Z,260
2016-04-04T11:32:27.113Z,250
2016-04-04T11:33:27.115Z,240
2016-04-04T11:34:27.134Z,235
2016-04-04T11:35:27.121Z,255
2016-04-04T11:36:27.123Z,275
2016-04-04T11:37:27.126Z,280
2016-04-04T11:38:27.151Z,250
2016-04-04T11:39:27.153Z,235
2016-04-04T11:40:27.171Z,230
2016-04-04T11:41:27.158Z,225
2016-04-04T11:42:27.208Z,230
2016-04-04T11:43:27.195Z,235
2016-04-04T11:44:27.213Z,240
2016-04-04T11:45:27.184Z,245
2016-04-04T11:46:27.202Z,245
2016-04-04T11:47:27.189Z,250
2016-04-04T11:48:27.177Z,255
2016-04-04T11:49:27.179Z,255
2016-04-04T11:50:27.229Z,260
2016-04-04T11:51:27.200Z,260
2016-04-04T11:52:27.219Z,265
2016-04-04T11:53:27.205Z,270
2016-04-04T11:54:27.241Z,275
2016-04-04T11:55:27.243Z,285
2016-04-04T11:56:27.261Z,290
2016-04-04T11:57:27.233Z,305
2016-04-04T11:58:27.251Z,315
2016-04-04T11:59:27.254Z,335
2016-04-04T12:00:27.256Z,355
2016-04-04T12:01:27.290Z,380
2016-04-04T12:02:27.262Z,375
2016-04-04T12:03:27.279Z,360
2016-04-04T12:04:27.282Z,340
2016-04-04T12:05:27.300Z,295
2016-04-04T12:06:27.303Z,275
2016-04-04T12:07:27.337Z,265
2016-04-04T12:08:27.292Z,265
2016-04-04T12:09:27.296Z,270
2016-04-04T12:10:27.298Z,280
2016-04-04T12:11:27.348Z,285
2016-04-04T12:12:27.351Z,285
2016-04-04T12:13:27.307Z,280
2016-04-04T12:14:27.356Z,265
2016-04-04T12:15:27.359Z,250
2016-04-04T12:16:27.392Z,245
2016-04-04T12:17:27.395Z,245
2016-04-04T12:18:27.367Z,255
2016-04-04T12:19:27.385Z,270
2016-04-04T12:20:27.373Z,275
2016-04-04T12:21:27.375Z,285
2016-04-04T12:22:27.378Z,280
2016-04-04T12:23:27.412Z,270
2016-04-04T12:24:27.399Z,265
2016-04-04T12:25:27.370Z,265
2016-04-04T12:26:27.405Z,265
2016-04-04T12:27:27.235Z,260
2016-04-04T12:28:27.394Z,255
2016-04-04T12:29:27.412Z,260
2016-04-04T12:30:27.415Z,260
2016-04-04T12:31:27.449Z,260
2016-04-04T12:32:27.435Z,250
2016-04-04T12:33:27.438Z,245
2016-04-04T12:34:27.472Z,245
2016-04-04T12:35:27.475Z,255
2016-04-04T12:36:27.431Z,270
2016-04-04T12:37:27.496Z,280
2016-04-04T12:38:27.467Z,290
2016-04-04T12:39:27.487Z,290
2016-04-04T12:40:27.551Z,285
2016-04-04T12:41:27.476Z,285
2016-04-04T12:42:27.479Z,290
2016-04-04T12:43:27.450Z,300
2016-04-04T12:44:27.546Z,330
2016-04-04T12:45:27.486Z,315
2016-04-04T12:46:27.505Z,300
2016-04-04T12:47:27.508Z,275
2016-04-04T12:48:27.510Z,260
2016-04-04T12:49:27.497Z,255
2016-04-04T12:50:27.547Z,250
2016-04-04T12:51:27.533Z,240
2016-04-04T12:52:26.786Z,235
2016-04-04T12:53:27.554Z,240
2016-04-04T12:54:27.541Z,250
2016-04-04T12:55:27.544Z,255
2016-04-04T12:56:27.546Z,245
2016-04-04T12:57:27.535Z,230
2016-04-04T12:58:27.599Z,230
2016-04-04T12:59:27.602Z,230
2016-04-04T13:00:27.621Z,235
2016-04-04T13:01:27.577Z,255
2016-04-04T13:02:27.594Z,265
2016-04-04T13:03:27.582Z,280
2016-04-04T13:04:27.584Z,290
2016-04-04T13:05:27.618Z,290
2016-04-04T13:06:27.621Z,280
2016-04-04T13:07:27.623Z,265
2016-04-04T13:08:27.627Z,245
2016-04-04T13:09:27.660Z,240
2016-04-04T13:10:27.679Z,230
2016-04-04T13:11:27.635Z,210
2016-04-04T13:12:27.653Z,200
2016-04-04T13:13:27.640Z,200
2016-04-04T13:14:27.626Z,205
2016-04-04T13:15:27.661Z,215
2016-04-04T13:16:27.726Z,220
2016-04-04T13:17:27.650Z,225
2016-04-04T13:18:27.887Z,235
2016-04-04T13:19:27.734Z,250
2016-04-04T13:20:27.721Z,265
2016-04-04T13:21:27.708Z,305
2016-04-04T13:22:27.663Z,345
2016-04-04T13:23:27.697Z,375
2016-04-04T13:24:27.732Z,390
2016-04-04T13:25:27.563Z,380
2016-04-04T13:26:27.705Z,365
2016-04-04T13:27:27.772Z,360
2016-04-04T13:28:27.743Z,350
2016-04-04T13:29:29.199Z,335
2016-04-04T13:30:27.764Z,325
2016-04-04T13:31:27.751Z,315
2016-04-04T13:32:27.722Z,310
2016-04-04T13:33:27.757Z,315
2016-04-04T13:34:27.774Z,305
2016-04-04T13:35:27.777Z,295
2016-04-04T13:36:27.764Z,275
2016-04-04T13:37:27.735Z,250
2016-04-04T13:38:27.770Z,225
2016-04-04T13:39:27.818Z,215
2016-04-04T13:40:27.821Z,215
2016-04-04T13:41:27.823Z,225
2016-04-04T13:42:27.858Z,235
2016-04-04T13:43:27.861Z,240
2016-04-04T13:44:27.864Z,250
2016-04-04T13:45:27.834Z,255
2016-04-04T13:46:27.900Z,265
2016-04-04T13:47:27.872Z,280
2016-04-04T13:48:27.859Z,295
2016-04-04T13:49:27.862Z,310
2016-04-04T13:50:27.833Z,310
2016-04-04T13:51:27.851Z,295
2016-04-04T13:52:27.854Z,300
2016-04-04T13:53:27.841Z,305
2016-04-04T13:54:27.828Z,315
2016-04-04T13:55:27.846Z,300
2016-04-04T13:56:27.849Z,300
2016-04-04T13:57:27.883Z,300
2016-04-04T13:58:27.869Z,290
2016-04-04T13:59:27.872Z,280
2016-04-04T14:00:27.938Z,275
2016-04-04T14:01:27.753Z,275
2016-04-04T14:02:27.881Z,275
2016-04-04T14:03:27.899Z,275
2016-04-04T14:04:27.918Z,275
2016-04-04T14:05:27.920Z,275
2016-04-04T14:06:27.923Z,270
2016-04-04T14:07:27.941Z,265
2016-04-04T14:08:27.943Z,260
2016-04-04T14:09:27.915Z,255
2016-04-04T14:10:27.965Z,255